createdAt,value
2019-03-04T00:00:23.896Z,9.88
2019-03-04T00:05:23.849Z,9.81
2019-03-04T00:10:23.851Z,9.75
2019-03-04T00:15:23.848Z,9.75
2019-03-04T00:20:23.843Z,9.81
2019-03-04T00:25:23.861Z,9.94
2019-03-04T00:30:23.831Z,10.06
2019-03-04T00:35:23.799Z,10.19
2019-03-04T00:40:23.859Z,10.19
2019-03-04T00:45:23.853Z,10.25
2019-03-04T00:50:23.850Z,10.25
2019-03-04T00:55:23.845Z,10.25
2019-03-04T01:00:23.853Z,10.19
2019-03-04T01:05:23.842Z,10.13
2019-03-04T01:10:23.935Z,10.06
2019-03-04T01:15:23.864Z,10.13
2019-03-04T01:20:23.852Z,9.94
2019-03-04T01:25:23.891Z,9.69
2019-03-04T01:30:23.859Z,9.63
2019-03-04T01:35:23.856Z,9.63
2019-03-04T01:40:23.841Z,9.69
2019-03-04T01:45:23.876Z,9.63
2019-03-04T01:50:23.907Z,9.63
2019-03-04T01:55:23.810Z,9.75
2019-03-04T02:00:23.839Z,9.81
2019-03-04T02:05:23.811Z,9.94
2019-03-04T02:10:23.857Z,9.88
2019-03-04T02:15:23.866Z,9.88
2019-03-04T02:20:23.859Z,9.88
2019-03-04T02:25:23.857Z,10.13
2019-03-04T02:30:23.832Z,10.13
2019-03-04T02:35:23.875Z,10
2019-03-04T02:40:23.821Z,9.94
2019-03-04T02:45:23.872Z,9.81
2019-03-04T02:50:23.815Z,9.75
2019-03-04T02:55:23.871Z,9.69
2019-03-04T03:00:23.866Z,9.69
2019-03-04T03:05:23.867Z,9.69
2019-03-04T03:10:23.855Z,9.69
2019-03-04T03:15:23.870Z,9.63
2019-03-04T03:20:23.855Z,9.69
2019-03-04T03:25:23.850Z,9.75
2019-03-04T03:30:23.923Z,9.81
2019-03-04T03:35:23.854Z,9.81
2019-03-04T03:40:23.860Z,9.81
2019-03-04T03:45:23.895Z,9.94
2019-03-04T03:50:23.907Z,9.94
2019-03-04T03:55:23.862Z,9.88
2019-03-04T04:00:23.881Z,9.94
2019-03-04T04:05:23.982Z,9.81
2019-03-04T04:10:23.849Z,9.81
2019-03-04T04:15:23.873Z,9.81
2019-03-04T04:20:23.856Z,9.81
2019-03-04T04:25:23.878Z,9.69
2019-03-04T04:30:23.897Z,9.63
2019-03-04T04:35:23.869Z,9.56
2019-03-04T04:40:23.859Z,9.56
2019-03-04T04:45:23.861Z,9.56
2019-03-04T04:50:23.869Z,9.56
2019-03-04T04:55:23.865Z,9.63
2019-03-04T05:00:23.834Z,9.63
2019-03-04T05:05:23.878Z,9.69
2019-03-04T05:10:23.864Z,9.75
2019-03-04T05:15:23.865Z,9.81
2019-03-04T05:20:23.868Z,9.81
2019-03-04T05:25:23.890Z,9.88
2019-03-04T05:30:23.867Z,9.94
2019-03-04T05:35:23.873Z,9.94
2019-03-04T05:40:23.950Z,10
2019-03-04T05:45:23.880Z,10.06
2019-03-04T05:50:23.878Z,10.13
2019-03-04T05:55:23.868Z,10.13
2019-03-04T06:00:23.881Z,10.19
2019-03-04T06:05:23.891Z,10.19
2019-03-04T06:10:23.829Z,10.19
2019-03-04T06:15:23.871Z,10.25
2019-03-04T06:20:23.853Z,10.31
2019-03-04T06:25:23.883Z,10.38
2019-03-04T06:30:23.877Z,10.38
2019-03-04T06:35:23.873Z,10.44
2019-03-04T06:40:23.874Z,10.5
2019-03-04T06:45:23.877Z,10.75
2019-03-04T06:50:23.859Z,11
2019-03-04T06:55:23.872Z,11.25
2019-03-04T07:00:23.872Z,11.44
2019-03-04T07:05:23.832Z,11.69
2019-03-04T07:10:23.869Z,11.75
2019-03-04T07:15:23.873Z,11.75
2019-03-04T07:20:23.886Z,11.81
2019-03-04T07:25:23.823Z,11.88
2019-03-04T07:30:23.871Z,11.88
2019-03-04T07:35:23.875Z,12
2019-03-04T07:40:23.874Z,12.13
2019-03-04T07:45:23.888Z,12.31
2019-03-04T07:50:23.877Z,12.5
2019-03-04T07:55:23.873Z,12.63
2019-03-04T08:00:23.883Z,12.88
2019-03-04T08:05:23.840Z,13.13
2019-03-04T08:10:23.886Z,13.25
2019-03-04T08:15:23.846Z,13.44
2019-03-04T08:20:23.894Z,13.5
2019-03-04T08:25:23.891Z,13.31
2019-03-04T08:30:23.847Z,13.19
2019-03-04T08:35:23.919Z,13.13
2019-03-04T08:40:23.884Z,13
2019-03-04T08:45:23.872Z,13
2019-03-04T08:50:23.883Z,13.06
2019-03-04T08:55:23.874Z,13.13
2019-03-04T09:00:23.890Z,13.19
2019-03-04T09:05:23.840Z,13.5
2019-03-04T09:10:23.939Z,13.75
2019-03-04T09:15:23.882Z,13.63
2019-03-04T09:20:23.876Z,13.75
2019-03-04T09:25:30.242Z,14.94
2019-03-04T09:30:23.881Z,15.25
2019-03-04T09:35:23.890Z,15.69
2019-03-04T09:40:23.894Z,16.06
2019-03-04T09:45:23.906Z,16.38
2019-03-04T09:50:23.844Z,15.94
2019-03-04T09:55:23.925Z,16
2019-03-04T10:00:23.879Z,16.56
2019-03-04T10:05:23.879Z,16.56
2019-03-04T10:10:23.878Z,16.31
2019-03-04T10:15:23.847Z,16.19
2019-03-04T10:20:23.896Z,16.13
2019-03-04T10:25:23.835Z,15.88
2019-03-04T10:30:23.875Z,15.94
2019-03-04T10:35:23.898Z,15.94
2019-03-04T10:40:23.885Z,15.75
2019-03-04T10:45:23.882Z,15.63
2019-03-04T10:50:23.899Z,16.19
2019-03-04T10:55:23.873Z,16.19
2019-03-04T11:00:23.890Z,16
2019-03-04T11:05:23.895Z,15.69
2019-03-04T11:10:23.888Z,15.56
2019-03-04T11:15:23.891Z,15.56
2019-03-04T11:20:23.874Z,15.44
2019-03-04T11:25:23.893Z,14.69
2019-03-04T11:30:23.901Z,12.69
2019-03-04T11:35:23.858Z,11.69
2019-03-04T11:40:23.907Z,11.31
2019-03-04T11:45:23.859Z,11.31
2019-03-04T11:50:23.887Z,11.44
2019-03-04T11:55:23.855Z,11.81
2019-03-04T12:00:23.913Z,12.06
2019-03-04T12:05:23.899Z,13.19
2019-03-04T12:10:23.894Z,13.13
2019-03-04T12:15:23.895Z,12.88
2019-03-04T12:20:23.855Z,12.56
2019-03-04T12:25:23.905Z,12.5
2019-03-04T12:30:23.895Z,12.63
2019-03-04T12:35:23.892Z,12.69
2019-03-04T12:40:23.855Z,12.69
2019-03-04T12:45:33.577Z,12.81
2019-03-04T12:50:23.999Z,12.81
2019-03-04T12:55:23.898Z,12.88
2019-03-04T13:00:23.896Z,12.88
2019-03-04T13:05:23.898Z,12.94
2019-03-04T13:10:23.904Z,13
2019-03-04T13:15:23.902Z,13.13
2019-03-04T13:20:23.875Z,13.13
2019-03-04T13:25:23.895Z,13.19
2019-03-04T13:30:23.902Z,13.19
2019-03-04T13:35:24.916Z,13.25
2019-03-04T13:40:23.889Z,13.25
2019-03-04T13:45:23.940Z,13.31
2019-03-04T13:50:23.907Z,13.38
2019-03-04T13:55:24.012Z,13.31
2019-03-04T14:00:23.906Z,13.25
2019-03-04T14:05:23.872Z,13.13
2019-03-04T14:10:23.929Z,13.06
2019-03-04T14:15:23.924Z,13
2019-03-04T14:20:23.855Z,13.13
2019-03-04T14:25:23.994Z,13.06
2019-03-04T14:30:23.892Z,13.06
2019-03-04T14:35:23.901Z,13
2019-03-04T14:40:23.920Z,12.75
2019-03-04T14:45:23.906Z,12.75
2019-03-04T14:50:23.913Z,12.63
2019-03-04T14:55:23.860Z,12.56
2019-03-04T15:00:23.905Z,12.56
2019-03-04T15:05:23.857Z,12.5
2019-03-04T15:10:23.903Z,12.38
2019-03-04T15:15:23.904Z,12.31
2019-03-04T15:20:23.901Z,12.25
2019-03-04T15:25:23.924Z,12.13
2019-03-04T15:30:23.916Z,12.13
2019-03-04T15:35:23.941Z,12.06
2019-03-04T15:40:23.918Z,11.94
2019-03-04T15:45:23.916Z,11.94
2019-03-04T15:50:23.914Z,11.81
2019-03-04T15:55:23.915Z,11.69
2019-03-04T16:00:23.951Z,11.5
2019-03-04T16:05:23.923Z,10.94
2019-03-04T16:10:23.862Z,10.81
2019-03-04T16:15:23.915Z,10.75
2019-03-04T16:20:23.921Z,10.69
2019-03-04T16:25:23.952Z,10.56
2019-03-04T16:30:23.871Z,10.5
2019-03-04T16:35:23.918Z,10.44
2019-03-04T16:40:23.916Z,10.38
2019-03-04T16:45:23.956Z,8.38
2019-03-04T16:50:23.907Z,6.81
2019-03-04T16:55:23.922Z,6.13
2019-03-04T17:00:23.914Z,5.69
2019-03-04T17:05:23.910Z,5.25
2019-03-04T17:10:23.913Z,5.25
2019-03-04T17:15:23.921Z,5.38
2019-03-04T17:20:23.930Z,5.56
2019-03-04T17:25:23.871Z,5.75
2019-03-04T17:30:23.954Z,5.81
2019-03-04T17:35:23.925Z,5.88
2019-03-04T17:40:23.901Z,5.88
2019-03-04T17:45:24.409Z,5.94
2019-03-04T17:50:23.873Z,6
2019-03-04T17:55:23.916Z,6
2019-03-04T18:00:23.906Z,6.06
2019-03-04T18:05:23.927Z,6
2019-03-04T18:10:23.915Z,5.94
2019-03-04T18:15:23.952Z,5.88
2019-03-04T18:20:31.131Z,5.81
2019-03-04T18:25:23.938Z,5.5
2019-03-04T18:30:23.930Z,5.44
2019-03-04T18:35:23.918Z,5.31
2019-03-04T18:40:23.940Z,5.25
2019-03-04T18:45:23.947Z,5.13
2019-03-04T18:50:23.914Z,5.13
2019-03-04T18:55:23.941Z,5.06
2019-03-04T19:00:23.935Z,5.06
2019-03-04T19:05:23.909Z,5.06
2019-03-04T19:10:23.955Z,5
2019-03-04T19:15:23.886Z,5
2019-03-04T19:20:23.874Z,5.06
2019-03-04T19:25:23.940Z,5
2019-03-04T19:30:23.942Z,5.06
2019-03-04T19:35:23.924Z,5.06
2019-03-04T19:40:23.928Z,5
2019-03-04T19:45:23.928Z,5
2019-03-04T19:50:23.931Z,5
2019-03-04T19:55:23.929Z,5
2019-03-04T20:00:24.986Z,5
2019-03-04T20:05:23.927Z,5.25
2019-03-04T20:10:23.887Z,5.31
2019-03-04T20:15:23.928Z,5.38
2019-03-04T20:20:23.919Z,5.38
2019-03-04T20:25:23.916Z,5.5
2019-03-04T20:30:25.589Z,5.56
2019-03-04T20:35:23.891Z,5.56
2019-03-04T20:40:23.971Z,5.56
2019-03-04T20:45:23.916Z,5.63
2019-03-04T20:50:23.930Z,5.69
2019-03-04T20:55:23.947Z,5.69
2019-03-04T21:00:23.904Z,5.75
2019-03-04T21:05:25.683Z,5.75
2019-03-04T21:10:23.977Z,5.75
2019-03-04T21:15:23.937Z,5.75
2019-03-04T21:20:23.935Z,5.75
2019-03-04T21:25:23.929Z,5.69
2019-03-04T21:30:23.955Z,5.63
2019-03-04T21:35:23.893Z,5.63
2019-03-04T21:40:23.978Z,5.63
2019-03-04T21:45:23.922Z,5.56
2019-03-04T21:50:23.967Z,5.56
2019-03-04T21:55:23.950Z,5.56
2019-03-04T22:00:23.905Z,5.56
2019-03-04T22:05:23.951Z,5.56
2019-03-04T22:10:23.965Z,5.56
2019-03-04T22:15:23.938Z,5.63
2019-03-04T22:20:23.946Z,5.63
2019-03-04T22:25:23.930Z,5.63
2019-03-04T22:30:23.953Z,5.63
2019-03-04T22:35:23.978Z,5.56
2019-03-04T22:40:23.969Z,5.56
2019-03-04T22:45:23.951Z,5.56
2019-03-04T22:50:23.956Z,5.56
2019-03-04T22:55:23.985Z,5.56
2019-03-04T23:00:23.919Z,5.56
2019-03-04T23:05:23.939Z,5.56
2019-03-04T23:10:23.934Z,5.63
2019-03-04T23:15:24.339Z,5.63
2019-03-04T23:20:23.941Z,5.63
2019-03-04T23:25:23.948Z,5.63
2019-03-04T23:30:23.937Z,5.63
2019-03-04T23:35:23.945Z,5.63
2019-03-04T23:40:23.943Z,5.56
2019-03-04T23:45:23.949Z,5.56
2019-03-04T23:50:23.933Z,5.56
2019-03-04T23:55:23.980Z,5.5
